Time;durP1;ratioP1;P1;durP2;ratioP2;P2;SDS_P1;SDS_P2;PMS_P1;PMS_P2;Temp;Humidity;BMP_temperature;BMP_pressure;BME280_temperature;BME280_humidity;BME280_pressure;Samples;Min_cycle;Max_cycle;Signal;HPM_P1;HPM_P2
2022/07/20 00:00:19;;;;;;;7.30;3.20;;;24.20;1.00;;;;;;5005508;28;20217;-63
2022/07/20 00:02:47;;;;;;;5.13;2.97;;;24.20;1.00;;;;;;5015246;28;20743;-62
2022/07/20 00:05:14;;;;;;;6.15;3.20;;;24.50;1.00;;;;;;5020797;28;20958;-63
2022/07/20 00:07:41;;;;;;;3.95;3.13;;;24.00;1.00;;;;;;5010297;28;20240;-62
2022/07/20 00:12:54;;;;;;;4.68;3.10;;;24.00;1.00;;;;;;5020834;28;20306;-62
2022/07/20 00:15:20;;;;;;;4.60;2.60;;;24.00;1.00;;;;;;5013035;28;20201;-63
2022/07/20 00:17:48;;;;;;;3.22;2.90;;;24.00;1.00;;;;;;5027513;28;20711;-62
2022/07/20 00:20:15;;;;;;;3.38;3.08;;;23.90;1.00;;;;;;5019683;28;20210;-63
2022/07/20 00:22:42;;;;;;;6.40;2.80;;;24.10;1.00;;;;;;5017144;28;20201;-63
2022/07/20 00:25:09;;;;;;;7.20;3.15;;;23.90;1.00;;;;;;5008807;28;20209;-62
2022/07/20 00:27:36;;;;;;;4.07;2.80;;;23.90;1.00;;;;;;5018339;28;20233;-62
2022/07/20 00:30:03;;;;;;;2.80;2.58;;;23.80;1.00;;;;;;5004831;28;20229;-62
2022/07/20 00:32:30;;;;;;;6.10;2.45;;;23.80;1.00;;;;;;5029468;28;20205;-62
2022/07/20 00:34:58;;;;;;;4.03;2.83;;;23.70;1.00;;;;;;5017754;28;20208;-63
2022/07/20 00:37:25;;;;;;;5.35;3.22;;;23.80;1.00;;;;;;5030826;28;21028;-62
2022/07/20 00:39:52;;;;;;;3.92;2.90;;;24.80;1.00;;;;;;4997795;28;20580;-63
2022/07/20 00:42:18;;;;;;;5.53;2.75;;;23.70;1.00;;;;;;5025047;28;20205;-63
2022/07/20 00:44:45;;;;;;;4.80;2.75;;;23.70;1.00;;;;;;5027336;28;21617;-62
2022/07/20 00:47:12;;;;;;;4.30;2.85;;;;;;;;;;5018115;28;20228;-62
2022/07/20 00:49:39;;;;;;;2.92;2.45;;;23.60;1.00;;;;;;5018474;28;20212;-62
2022/07/20 00:52:08;;;;;;;4.60;2.72;;;23.60;1.00;;;;;;5022544;28;20208;-62
2022/07/20 00:54:35;;;;;;;4.00;2.78;;;23.60;1.00;;;;;;5009890;28;20684;-62
2022/07/20 00:57:02;;;;;;;4.07;3.10;;;23.60;1.00;;;;;;5012572;28;20209;-62
2022/07/20 00:59:29;;;;;;;2.83;2.47;;;23.50;1.00;;;;;;5024950;28;20229;-62
2022/07/20 01:01:56;;;;;;;11.88;6.80;;;23.60;1.00;;;;;;5009014;28;20212;-62
2022/07/20 01:04:23;;;;;;;46.83;19.25;;;23.60;1.00;;;;;;5028009;28;20201;-62
2022/07/20 01:06:51;;;;;;;46.20;19.35;;;23.60;1.00;;;;;;5017580;28;20257;-62
2022/07/20 01:09:20;;;;;;;78.65;28.90;;;23.70;1.00;;;;;;5006732;28;20209;-62
2022/07/20 01:11:47;;;;;;;24.08;9.13;;;23.60;1.00;;;;;;5014037;28;20283;-62
2022/07/20 01:14:14;;;;;;;9.07;4.70;;;23.50;1.00;;;;;;5027886;28;20198;-62
2022/07/20 01:16:41;;;;;;;5.03;3.17;;;23.70;1.00;;;;;;5020965;28;20213;-62
2022/07/20 01:19:08;;;;;;;4.88;3.20;;;23.50;1.00;;;;;;5016477;28;20236;-62
2022/07/20 01:21:40;;;;;;;3.40;2.50;;;23.50;1.00;;;;;;5018037;28;20206;-62
2022/07/20 01:24:09;;;;;;;3.58;2.58;;;20.80;1.00;;;;;;5014316;28;20212;-62
2022/07/20 01:26:37;;;;;;;8.43;2.65;;;23.50;1.00;;;;;;5011431;28;20228;-62
2022/07/20 01:29:04;;;;;;;3.97;2.60;;;23.50;1.00;;;;;;5022322;28;20271;-62
2022/07/20 01:31:31;;;;;;;5.07;2.90;;;23.50;1.00;;;;;;5000189;28;20230;-62
2022/07/20 01:33:58;;;;;;;6.68;2.88;;;22.90;1.00;;;;;;5009991;28;20340;-62
2022/07/20 01:36:25;;;;;;;6.40;2.53;;;23.40;1.00;;;;;;5015576;28;20209;-62
2022/07/20 01:38:53;;;;;;;11.80;2.85;;;23.60;1.00;;;;;;5024558;28;20633;-62
2022/07/20 01:41:21;;;;;;;5.93;3.25;;;23.40;1.00;;;;;;5001509;28;20209;-62
2022/07/20 01:43:47;;;;;;;2.90;2.60;;;23.40;1.00;;;;;;5017002;28;20197;-62
2022/07/20 01:46:15;;;;;;;3.08;2.40;;;;;;;;;;5030518;28;20201;-62
2022/07/20 01:48:42;;;;;;;5.13;3.00;;;23.40;1.00;;;;;;5004711;28;20225;-62
2022/07/20 01:51:09;;;;;;;9.98;3.00;;;23.40;1.00;;;;;;5026252;28;21223;-62
2022/07/20 01:53:36;;;;;;;5.97;2.40;;;23.30;1.00;;;;;;5018003;28;20699;-62
2022/07/20 01:56:04;;;;;;;5.30;3.00;;;23.30;1.00;;;;;;5008499;28;20224;-62
2022/07/20 01:58:31;;;;;;;3.30;2.45;;;23.20;1.00;;;;;;5019671;28;20202;-62
2022/07/20 02:00:58;;;;;;;5.97;2.85;;;23.10;1.00;;;;;;5027806;28;20202;-62
2022/07/20 02:03:25;;;;;;;6.50;2.50;;;23.10;1.00;;;;;;5004583;28;20202;-62
2022/07/20 02:05:52;;;;;;;5.60;2.85;;;23.00;1.00;;;;;;5023130;28;20213;-62
2022/07/20 02:08:18;;;;;;;3.78;2.63;;;23.00;1.00;;;;;;5021780;28;20229;-62
2022/07/20 02:10:45;;;;;;;3.78;2.50;;;22.90;1.00;;;;;;5023536;28;20198;-62
2022/07/20 02:13:13;;;;;;;5.90;2.67;;;22.80;1.00;;;;;;5002985;28;20205;-62
2022/07/20 02:18:24;;;;;;;2.58;2.30;;;22.80;1.00;;;;;;5017767;28;20236;-62
2022/07/20 02:20:51;;;;;;;3.03;2.67;;;22.50;1.00;;;;;;5024097;28;20209;-62
2022/07/20 02:23:18;;;;;;;6.68;2.58;;;22.70;1.00;;;;;;5035836;28;20205;-61
2022/07/20 02:25:45;;;;;;;5.68;2.92;;;22.80;1.00;;;;;;5019167;28;20210;-62
2022/07/20 02:28:13;;;;;;;4.13;2.88;;;22.60;1.00;;;;;;5008496;28;20240;-62
2022/07/20 02:30:40;;;;;;;5.03;3.35;;;22.60;1.00;;;;;;5022761;28;20221;-62
2022/07/20 02:33:07;;;;;;;12.38;5.95;;;22.60;1.00;;;;;;5021194;28;20190;-62
2022/07/20 02:35:34;;;;;;;17.15;7.10;;;22.50;1.00;;;;;;5017653;28;20636;-62
2022/07/20 02:38:01;;;;;;;23.42;8.20;;;22.70;1.00;;;;;;5032366;28;20213;-62
2022/07/20 02:40:28;;;;;;;20.02;9.02;;;22.40;1.00;;;;;;5020740;28;20204;-62
2022/07/20 02:42:55;;;;;;;16.38;7.03;;;22.50;1.00;;;;;;5033738;28;20214;-61
2022/07/20 02:45:23;;;;;;;11.30;5.70;;;22.40;1.00;;;;;;5006296;28;20210;-62
2022/07/20 02:47:50;;;;;;;13.52;5.65;;;22.40;1.00;;;;;;5026946;28;20855;-62
2022/07/20 02:50:17;;;;;;;9.88;4.72;;;22.40;1.00;;;;;;5023889;28;20201;-62
2022/07/20 02:52:44;;;;;;;12.32;4.53;;;22.40;1.00;;;;;;5022209;28;20209;-61
2022/07/20 02:55:12;;;;;;;6.07;3.72;;;22.40;1.00;;;;;;5023463;28;20198;-62
2022/07/20 02:57:39;;;;;;;10.73;3.85;;;22.40;1.00;;;;;;5032334;28;20212;-62
2022/07/20 03:00:07;;;;;;;6.75;3.13;;;22.30;1.00;;;;;;5012347;28;20209;-62
2022/07/20 03:02:36;;;;;;;5.20;3.30;;;22.30;1.00;;;;;;5029693;28;20649;-62
2022/07/20 03:05:02;;;;;;;6.13;2.75;;;22.30;1.00;;;;;;5021086;28;21078;-62
2022/07/20 03:07:29;;;;;;;4.40;2.83;;;22.20;1.00;;;;;;5006157;28;20233;-62
2022/07/20 03:09:56;;;;;;;5.20;2.60;;;22.30;1.00;;;;;;5021443;28;20201;-63
2022/07/20 03:12:23;;;;;;;4.47;2.60;;;22.10;1.00;;;;;;5020513;28;20202;-62
2022/07/20 03:14:50;;;;;;;4.28;2.90;;;22.10;1.00;;;;;;5005827;28;20314;-62
2022/07/20 03:17:17;;;;;;;4.30;2.55;;;22.10;1.00;;;;;;5027110;28;20204;-62
2022/07/20 03:19:45;;;;;;;5.95;2.65;;;22.10;1.00;;;;;;5009119;28;20216;-62
2022/07/20 03:22:12;;;;;;;6.32;2.50;;;22.00;1.00;;;;;;5028669;28;20206;-61
2022/07/20 03:24:40;;;;;;;4.57;2.60;;;;;;;;;;4999230;28;20209;-62
2022/07/20 03:27:06;;;;;;;6.40;2.58;;;21.80;1.00;;;;;;5028583;28;20204;-62
2022/07/20 03:29:33;;;;;;;4.22;2.83;;;21.90;1.00;;;;;;5005234;28;20228;-62
2022/07/20 03:32:00;;;;;;;5.03;2.60;;;22.00;1.00;;;;;;5030333;28;20204;-62
2022/07/20 03:34:27;;;;;;;3.80;2.58;;;22.00;1.00;;;;;;5028437;28;20208;-62
2022/07/20 03:36:55;;;;;;;4.03;2.92;;;22.10;1.00;;;;;;5018932;28;20209;-62
2022/07/20 03:39:22;;;;;;;6.65;2.83;;;22.10;1.00;;;;;;5014035;28;20209;-62
2022/07/20 03:41:49;;;;;;;7.35;2.95;;;22.10;1.00;;;;;;5013420;28;20217;-62
2022/07/20 03:44:16;;;;;;;6.30;2.80;;;22.00;1.00;;;;;;5024121;28;20592;-61
2022/07/20 03:46:43;;;;;;;3.90;2.58;;;22.20;1.00;;;;;;5004868;28;20939;-62
2022/07/20 03:49:09;;;;;;;7.10;3.08;;;21.90;1.00;;;;;;5027629;28;20229;-62
2022/07/20 03:51:38;;;;;;;5.18;2.83;;;22.60;1.00;;;;;;5016853;28;20205;-62
2022/07/20 03:54:07;;;;;;;8.55;4.25;;;22.30;1.00;;;;;;5015491;28;20293;-62
2022/07/20 03:56:39;;;;;;;28.88;12.20;;;22.30;1.00;;;;;;5020745;28;20206;-62
2022/07/20 03:59:07;;;;;;;18.00;9.77;;;22.20;1.00;;;;;;5030355;28;20206;-62
2022/07/20 04:01:34;;;;;;;32.28;13.75;;;21.90;1.00;;;;;;5002545;28;20202;-62
2022/07/20 04:04:00;;;;;;;44.38;17.40;;;22.10;1.00;;;;;;5027432;28;20204;-62
2022/07/20 04:06:27;;;;;;;57.05;22.33;;;22.10;1.00;;;;;;5017576;28;20216;-62
2022/07/20 04:08:54;;;;;;;42.85;17.55;;;22.00;1.00;;;;;;5019245;28;20225;-62
2022/07/20 04:11:23;;;;;;;37.00;15.13;;;22.20;1.00;;;;;;5010308;28;20202;-62
2022/07/20 04:13:49;;;;;;;29.05;13.20;;;22.20;1.00;;;;;;5024343;28;20233;-62
2022/07/20 04:16:16;;;;;;;29.15;11.27;;;22.10;1.00;;;;;;5008487;28;20206;-62
2022/07/20 04:18:43;;;;;;;19.58;8.57;;;22.10;1.00;;;;;;5021485;28;20210;-62
2022/07/20 04:21:10;;;;;;;9.13;5.05;;;22.10;1.00;;;;;;5031889;28;20202;-62
2022/07/20 04:23:36;;;;;;;6.70;3.78;;;22.00;1.00;;;;;;5017698;28;23028;-62
2022/07/20 04:26:04;;;;;;;4.70;3.03;;;22.10;1.00;;;;;;5018368;28;20202;-62
2022/07/20 04:28:32;;;;;;;6.05;3.50;;;22.30;1.00;;;;;;5016436;28;20755;-62
2022/07/20 04:30:59;;;;;;;6.68;3.28;;;22.30;1.00;;;;;;5027734;28;21062;-62
2022/07/20 04:33:26;;;;;;;7.70;3.08;;;22.30;1.00;;;;;;4987563;28;20641;-62
2022/07/20 04:35:54;;;;;;;7.65;2.88;;;22.50;1.00;;;;;;5027004;28;20197;-62
2022/07/20 04:38:21;;;;;;;4.20;2.83;;;22.30;1.00;;;;;;5009395;28;20297;-62
2022/07/20 04:40:49;;;;;;;3.53;3.00;;;24.60;1.00;;;;;;5004845;28;20225;-62
2022/07/20 04:43:15;;;;;;;4.30;2.55;;;22.20;1.00;;;;;;5020082;28;20221;-63
2022/07/20 04:45:43;;;;;;;7.90;2.90;;;22.30;1.00;;;;;;5028824;28;20190;-62
2022/07/20 04:48:10;;;;;;;5.00;2.47;;;22.30;1.00;;;;;;5005910;28;20216;-62
2022/07/20 04:50:37;;;;;;;6.00;3.17;;;22.40;1.00;;;;;;5013998;28;21439;-63
2022/07/20 04:53:04;;;;;;;5.00;2.90;;;22.30;1.00;;;;;;5027080;28;20228;-62
2022/07/20 04:55:30;;;;;;;6.05;2.72;;;22.30;1.00;;;;;;5004251;28;20209;-62
2022/07/20 04:57:57;;;;;;;4.57;2.83;;;22.30;1.00;;;;;;5013842;28;20202;-63
2022/07/20 05:00:24;;;;;;;4.07;2.85;;;22.20;1.00;;;;;;5010401;28;20226;-62
2022/07/20 05:02:52;;;;;;;4.85;3.13;;;22.30;1.00;;;;;;5011096;28;20205;-62
2022/07/20 05:05:19;;;;;;;6.32;3.05;;;;;;;;;;5024152;28;20205;-62
2022/07/20 05:07:46;;;;;;;6.22;3.75;;;22.40;1.00;;;;;;5029209;28;20700;-62
2022/07/20 05:10:13;;;;;;;9.20;4.47;;;22.40;1.00;;;;;;5026504;28;20776;-62
2022/07/20 05:12:40;;;;;;;15.32;5.80;;;22.60;1.00;;;;;;5010207;28;20193;-63
2022/07/20 05:15:07;;;;;;;11.30;5.88;;;22.40;1.00;;;;;;5020513;28;20209;-62
2022/07/20 05:17:34;;;;;;;16.52;6.78;;;22.70;1.00;;;;;;5012189;28;20236;-62
2022/07/20 05:20:03;;;;;;;13.25;5.68;;;22.50;1.00;;;;;;5002470;28;20217;-62
2022/07/20 05:22:29;;;;;;;8.25;3.83;;;22.80;1.00;;;;;;5024539;28;20221;-62
2022/07/20 05:24:56;;;;;;;6.63;4.15;;;22.60;1.00;;;;;;5016799;28;20206;-62
2022/07/20 05:27:23;;;;;;;9.60;3.58;;;22.60;1.00;;;;;;5009999;28;20209;-62
2022/07/20 05:29:50;;;;;;;5.80;3.35;;;22.70;1.00;;;;;;5014955;28;20268;-62
2022/07/20 05:32:16;;;;;;;7.05;3.03;;;22.70;1.00;;;;;;5025318;28;20193;-62
2022/07/20 05:34:43;;;;;;;3.40;2.67;;;22.80;1.00;;;;;;5006687;28;20205;-62
2022/07/20 05:37:11;;;;;;;5.22;2.83;;;22.90;1.00;;;;;;5028736;28;20217;-62
2022/07/20 05:39:38;;;;;;;6.82;2.92;;;;;;;;;;5022826;28;20211;-62
2022/07/20 05:42:05;;;;;;;4.28;2.55;;;22.90;1.00;;;;;;5016719;28;20193;-62
2022/07/20 05:44:32;;;;;;;4.65;2.78;;;22.90;1.00;;;;;;5008106;28;20206;-62
2022/07/20 05:46:59;;;;;;;4.40;2.60;;;22.90;1.00;;;;;;5032717;28;20197;-62
2022/07/20 05:49:26;;;;;;;3.47;2.50;;;21.20;1.00;;;;;;4989741;28;20229;-62
2022/07/20 05:51:52;;;;;;;4.80;2.80;;;23.00;1.00;;;;;;5024586;28;20202;-62
2022/07/20 05:54:21;;;;;;;3.17;2.88;;;23.10;1.00;;;;;;5020624;28;20209;-62
2022/07/20 05:56:47;;;;;;;4.18;2.70;;;23.90;1.00;;;;;;5018826;28;20198;-63
2022/07/20 05:59:14;;;;;;;6.07;2.92;;;23.20;1.00;;;;;;5023926;28;20204;-62
2022/07/20 06:01:43;;;;;;;7.07;3.22;;;23.30;1.00;;;;;;5007916;28;20213;-62
2022/07/20 06:04:10;;;;;;;5.60;3.17;;;23.30;1.00;;;;;;5032742;28;20197;-62
2022/07/20 06:06:37;;;;;;;3.58;3.05;;;23.50;1.00;;;;;;5001720;28;20209;-62
2022/07/20 06:09:04;;;;;;;4.85;3.42;;;23.50;1.00;;;;;;5037027;28;20233;-63
2022/07/20 06:11:33;;;;;;;3.42;2.53;;;23.60;1.00;;;;;;5020380;28;20202;-62
2022/07/20 06:14:00;;;;;;;11.38;2.92;;;23.70;1.00;;;;;;5022067;28;20202;-62
2022/07/20 06:16:27;;;;;;;15.88;3.53;;;23.60;1.00;;;;;;5007343;28;20219;-62
2022/07/20 06:18:54;;;;;;;5.72;2.58;;;23.60;1.00;;;;;;5026691;28;20984;-62
2022/07/20 06:21:21;;;;;;;8.13;2.90;;;23.70;1.00;;;;;;5006772;28;20233;-62
2022/07/20 06:23:48;;;;;;;4.18;3.00;;;23.70;1.00;;;;;;5021413;28;20205;-62
2022/07/20 06:26:15;;;;;;;6.43;2.78;;;23.90;1.00;;;;;;5028198;28;20206;-62
2022/07/20 06:28:43;;;;;;;12.45;2.97;;;24.10;1.00;;;;;;5009509;28;21107;-63
2022/07/20 06:31:10;;;;;;;3.08;2.42;;;24.10;1.00;;;;;;5005332;28;20252;-62
2022/07/20 06:33:37;;;;;;;8.35;3.30;;;24.10;1.00;;;;;;5024402;28;20202;-62
2022/07/20 06:36:04;;;;;;;7.05;2.95;;;24.20;1.00;;;;;;5018559;28;20418;-62
2022/07/20 06:38:31;;;;;;;3.33;2.97;;;24.20;1.00;;;;;;4999991;28;20217;-62
2022/07/20 06:40:58;;;;;;;5.82;2.85;;;24.30;1.00;;;;;;5025885;28;20222;-62
2022/07/20 06:43:24;;;;;;;2.90;2.60;;;24.30;1.00;;;;;;5028820;28;20210;-60
2022/07/20 06:45:52;;;;;;;4.82;2.88;;;24.40;1.00;;;;;;5019190;28;20213;-60
2022/07/20 06:48:19;;;;;;;8.98;2.60;;;24.40;1.00;;;;;;5016363;28;20247;-60
2022/07/20 06:50:48;;;;;;;10.35;3.17;;;24.60;1.00;;;;;;4998459;28;20895;-63
2022/07/20 06:53:15;;;;;;;8.80;3.03;;;24.60;1.00;;;;;;5009937;28;20210;-63
2022/07/20 06:55:43;;;;;;;5.03;2.85;;;24.60;1.00;;;;;;5019614;28;20197;-62
2022/07/20 06:58:10;;;;;;;5.70;3.05;;;24.80;1.00;;;;;;5022329;28;20569;-62
2022/07/20 07:00:39;;;;;;;5.30;3.10;;;;;;;;;;5023804;28;20197;-62
2022/07/20 07:03:07;;;;;;;10.07;3.03;;;25.00;1.00;;;;;;5011060;28;20237;-62
2022/07/20 07:05:34;;;;;;;8.50;3.20;;;25.10;1.00;;;;;;5015806;28;20225;-62
2022/07/20 07:08:01;;;;;;;5.80;2.83;;;;;;;;;;5027128;28;20275;-62
2022/07/20 07:10:28;;;;;;;3.47;2.80;;;25.30;1.00;;;;;;4996190;28;20232;-64
2022/07/20 07:12:55;;;;;;;7.10;2.67;;;25.60;1.00;;;;;;5006931;28;20201;-62
2022/07/20 07:15:22;;;;;;;5.10;2.67;;;24.40;1.00;;;;;;5028533;28;20202;-62
2022/07/20 07:17:49;;;;;;;5.10;2.60;;;25.60;1.00;;;;;;5001507;28;20205;-62
2022/07/20 07:20:17;;;;;;;6.30;2.83;;;25.60;1.00;;;;;;5014447;28;20201;-62
2022/07/20 07:22:43;;;;;;;12.43;3.55;;;25.80;1.00;;;;;;5018301;28;20225;-62
2022/07/20 07:25:10;;;;;;;8.13;2.72;;;;;;;;;;4998449;28;20221;-62
2022/07/20 07:27:37;;;;;;;2.53;2.33;;;26.00;1.00;;;;;;5026950;28;20228;-63
2022/07/20 07:30:05;;;;;;;4.53;2.90;;;26.00;1.00;;;;;;5026136;28;20877;-63
2022/07/20 07:32:32;;;;;;;3.85;2.63;;;26.20;1.00;;;;;;5023467;28;20202;-62
2022/07/20 07:34:59;;;;;;;7.00;3.03;;;26.30;1.00;;;;;;5015597;28;20987;-63
2022/07/20 07:37:27;;;;;;;2.75;2.45;;;26.20;1.00;;;;;;5018923;28;20735;-63
2022/07/20 07:39:54;;;;;;;6.05;3.00;;;26.00;1.00;;;;;;5004825;28;20245;-63
2022/07/20 07:42:22;;;;;;;6.53;2.90;;;26.30;1.00;;;;;;5023244;28;20240;-62
2022/07/20 07:44:49;;;;;;;3.65;2.80;;;26.40;1.00;;;;;;5023488;28;20213;-62
2022/07/20 07:47:16;;;;;;;6.10;3.20;;;26.40;1.00;;;;;;5030363;28;20201;-62
2022/07/20 07:49:43;;;;;;;3.90;2.55;;;26.30;1.00;;;;;;5000080;28;20221;-63
2022/07/20 07:52:09;;;;;;;8.40;3.10;;;26.70;1.00;;;;;;5011169;28;20208;-63
2022/07/20 07:54:38;;;;;;;6.10;3.50;;;;;;;;;;5000401;28;20202;-63
2022/07/20 07:57:05;;;;;;;8.85;2.78;;;;;;;;;;5002865;28;20225;-63
2022/07/20 07:59:32;;;;;;;3.55;2.67;;;26.70;1.00;;;;;;5005904;28;20457;-63
2022/07/20 08:01:59;;;;;;;3.83;2.70;;;26.80;1.00;;;;;;5021862;28;20296;-63
2022/07/20 08:04:26;;;;;;;6.75;2.75;;;26.80;1.00;;;;;;5006335;28;20666;-63
2022/07/20 08:06:53;;;;;;;6.30;2.70;;;26.70;1.00;;;;;;5013959;28;20202;-63
2022/07/20 08:09:20;;;;;;;6.30;3.08;;;26.90;1.00;;;;;;5006443;28;20237;-63
2022/07/20 08:11:49;;;;;;;8.98;2.90;;;26.90;1.00;;;;;;4989358;28;20240;-63
2022/07/20 08:14:16;;;;;;;5.43;3.00;;;;;;;;;;5006504;28;20220;-63
2022/07/20 08:16:43;;;;;;;7.20;2.72;;;27.10;1.00;;;;;;5008738;28;20202;-63
2022/07/20 08:19:10;;;;;;;4.18;2.83;;;27.20;1.00;;;;;;5007673;28;20213;-63
2022/07/20 08:21:38;;;;;;;4.22;3.15;;;27.20;1.00;;;;;;5009134;28;20214;-63
2022/07/20 08:24:05;;;;;;;3.97;2.55;;;;;;;;;;4999760;28;20205;-63
2022/07/20 08:26:32;;;;;;;9.10;2.72;;;27.30;1.00;;;;;;5009548;28;20200;-63
2022/07/20 08:29:01;;;;;;;6.93;2.72;;;27.40;1.00;;;;;;4992901;28;20217;-63
2022/07/20 08:31:28;;;;;;;6.18;2.90;;;27.50;1.00;;;;;;5006510;28;20248;-63
2022/07/20 08:33:54;;;;;;;6.63;3.05;;;27.60;1.00;;;;;;5017985;28;20677;-63
2022/07/20 08:36:22;;;;;;;4.28;3.10;;;;;;;;;;5002205;28;20264;-64
2022/07/20 08:38:48;;;;;;;6.97;3.10;;;27.70;1.00;;;;;;5023886;28;20473;-63
2022/07/20 08:41:16;;;;;;;6.72;2.60;;;27.50;1.00;;;;;;4998417;28;20676;-64
2022/07/20 08:43:43;;;;;;;7.88;3.40;;;28.00;1.00;;;;;;5005748;28;20232;-64
2022/07/20 08:46:12;;;;;;;11.52;2.78;;;28.00;1.00;;;;;;5023410;28;20398;-64
2022/07/20 08:48:42;;;;;;;6.85;2.90;;;28.00;1.00;;;;;;5022340;28;20201;-63
2022/07/20 08:51:09;;;;;;;8.43;2.70;;;28.10;1.00;;;;;;5001242;28;20412;-64
2022/07/20 08:53:35;;;;;;;3.70;3.20;;;28.10;1.00;;;;;;5024320;28;20205;-64
2022/07/20 08:56:02;;;;;;;5.25;3.28;;;28.20;1.00;;;;;;5003547;28;20687;-64
2022/07/20 08:58:29;;;;;;;3.85;2.70;;;28.30;1.00;;;;;;5021976;28;20685;-63
2022/07/20 09:00:56;;;;;;;5.72;3.10;;;28.40;1.00;;;;;;5002620;28;20206;-63
2022/07/20 09:03:24;;;;;;;6.15;2.85;;;28.60;1.00;;;;;;5016919;28;20406;-63
2022/07/20 09:06:05;;;;;;;6.60;3.90;;;28.60;1.00;;;;;;5019579;28;20206;-63
2022/07/20 09:08:31;;;;;;;8.27;3.08;;;28.60;1.00;;;;;;5022371;28;20209;-64
2022/07/20 09:11:01;;;;;;;3.55;2.88;;;28.70;1.00;;;;;;5016973;28;20229;-63
2022/07/20 09:13:29;;;;;;;10.25;2.47;;;28.90;1.00;;;;;;5023363;28;20397;-64
2022/07/20 09:15:57;;;;;;;6.97;3.13;;;28.90;1.00;;;;;;4998718;28;20209;-63
2022/07/20 09:18:27;;;;;;;6.70;2.70;;;29.20;1.00;;;;;;5024007;28;20659;-64
2022/07/20 09:20:56;;;;;;;9.55;2.60;;;29.60;1.00;;;;;;5023138;28;21025;-63
2022/07/20 09:23:25;;;;;;;4.93;3.25;;;29.40;1.00;;;;;;5017606;28;20506;-63
2022/07/20 09:25:54;;;;;;;5.68;2.70;;;29.30;1.00;;;;;;5005151;28;20206;-64
2022/07/20 09:28:22;;;;;;;4.22;2.65;;;29.40;1.00;;;;;;5013888;28;20201;-63
2022/07/20 09:30:54;;;;;;;6.43;3.30;;;29.40;1.00;;;;;;4998782;28;20798;-63
2022/07/20 09:33:26;;;;;;;6.15;2.85;;;;;;;;;;5022598;28;20204;-63
2022/07/20 09:35:53;;;;;;;6.45;2.47;;;29.60;1.00;;;;;;5023959;28;20228;-64
2022/07/20 09:38:19;;;;;;;7.55;2.90;;;30.10;1.00;;;;;;4989446;28;20241;-63
2022/07/20 09:40:47;;;;;;;9.43;3.30;;;29.90;1.00;;;;;;4993612;28;20249;-64
2022/07/20 09:43:31;;;;;;;5.70;2.63;;;30.10;1.00;;;;;;4966630;28;21122;-64
2022/07/20 09:46:13;;;;;;;9.57;3.05;;;30.20;1.00;;;;;;4981846;28;20228;-64
2022/07/20 09:48:44;;;;;;;8.25;2.50;;;30.20;1.00;;;;;;5010254;28;20212;-64
2022/07/20 09:51:22;;;;;;;9.43;2.95;;;30.40;1.00;;;;;;5019751;28;20225;-63
2022/07/20 09:53:50;;;;;;;7.05;2.72;;;30.40;1.00;;;;;;5008827;28;20213;-63
2022/07/20 09:56:18;;;;;;;3.35;2.92;;;30.40;1.00;;;;;;5019618;28;20567;-65
2022/07/20 09:58:47;;;;;;;9.48;2.63;;;31.50;1.00;;;;;;4996189;28;20202;-64
2022/07/20 10:01:18;;;;;;;6.25;3.33;;;30.70;1.00;;;;;;4978297;28;20682;-64
2022/07/20 10:03:48;;;;;;;6.03;3.00;;;30.70;1.00;;;;;;5006291;28;20197;-63
2022/07/20 10:06:16;;;;;;;7.68;2.83;;;30.70;1.00;;;;;;5021806;28;20197;-64
2022/07/20 10:08:43;;;;;;;4.63;2.60;;;30.80;1.00;;;;;;5006790;28;20584;-64
2022/07/20 10:11:10;;;;;;;6.53;3.03;;;30.90;1.00;;;;;;5015693;28;20651;-64
2022/07/20 10:13:38;;;;;;;8.13;2.88;;;31.10;1.00;;;;;;5003931;28;20206;-65
2022/07/20 10:16:13;;;;;;;7.90;3.17;;;31.40;1.00;;;;;;4980277;28;20575;-65
2022/07/20 10:18:43;;;;;;;6.35;2.80;;;31.20;1.00;;;;;;5005784;28;20237;-64
2022/07/20 10:21:36;;;;;;;3.08;2.28;;;31.30;1.00;;;;;;5004512;28;20447;-64
2022/07/20 10:24:17;;;;;;;3.40;2.58;;;31.30;1.00;;;;;;4994640;28;20331;-65
2022/07/20 10:26:45;;;;;;;9.20;2.78;;;31.40;1.00;;;;;;5016297;28;20365;-65
2022/07/20 10:29:29;;;;;;;5.38;2.92;;;31.40;1.00;;;;;;5005044;28;20205;-64
2022/07/20 10:31:58;;;;;;;3.72;2.38;;;30.50;1.00;;;;;;4968582;28;20592;-64
2022/07/20 10:34:38;;;;;;;10.35;2.88;;;31.50;1.00;;;;;;5013161;28;20211;-65
2022/07/20 10:37:26;;;;;;;2.90;2.55;;;31.70;1.00;;;;;;5016459;28;20193;-64
2022/07/20 10:40:02;;;;;;;3.63;2.92;;;31.70;1.00;;;;;;5013379;28;20197;-64
2022/07/20 10:42:31;;;;;;;3.97;2.90;;;31.80;1.00;;;;;;5015859;28;20248;-65
2022/07/20 10:45:29;;;;;;;8.25;3.30;;;31.90;1.00;;;;;;4991852;28;20280;-65
2022/07/20 10:47:58;;;;;;;4.28;3.08;;;31.90;1.00;;;;;;4991818;28;20589;-65
2022/07/20 10:50:29;;;;;;;5.20;3.08;;;31.90;1.00;;;;;;5006608;28;20540;-64
2022/07/20 10:52:58;;;;;;;9.10;3.67;;;31.90;1.00;;;;;;5015936;28;20208;-64
2022/07/20 10:55:50;;;;;;;5.40;3.25;;;32.00;1.00;;;;;;5008236;28;20212;-65
2022/07/20 10:58:18;;;;;;;8.35;3.30;;;31.60;1.00;;;;;;5013636;28;20772;-64
2022/07/20 11:00:47;;;;;;;7.78;3.53;;;32.10;1.00;;;;;;4999550;28;20271;-64
2022/07/20 11:03:17;;;;;;;5.03;3.40;;;32.00;1.00;;;;;;4985536;28;20666;-64
2022/07/20 11:05:49;;;;;;;6.88;3.78;;;32.30;1.00;;;;;;5020066;28;20212;-64
2022/07/20 11:08:17;;;;;;;7.30;3.65;;;32.40;1.00;;;;;;5009818;28;20307;-65
2022/07/20 11:10:44;;;;;;;13.65;3.88;;;32.30;1.00;;;;;;5009416;28;20228;-64
2022/07/20 11:13:13;;;;;;;8.95;3.67;;;32.50;1.00;;;;;;5019355;28;20438;-65
2022/07/20 11:15:41;;;;;;;8.13;4.15;;;32.60;1.00;;;;;;5006094;28;20201;-65
2022/07/20 11:18:10;;;;;;;6.40;3.42;;;32.40;1.00;;;;;;4959388;28;20229;-64
2022/07/20 11:20:45;;;;;;;5.50;3.50;;;32.50;1.00;;;;;;5009557;28;20221;-65
2022/07/20 11:23:14;;;;;;;7.72;3.42;;;32.40;1.00;;;;;;4992184;28;20194;-64
2022/07/20 11:25:51;;;;;;;4.90;3.45;;;32.40;1.00;;;;;;5008641;28;20413;-65
2022/07/20 11:28:20;;;;;;;4.47;3.38;;;32.30;1.00;;;;;;5016905;28;20228;-65
2022/07/20 11:30:48;;;;;;;7.00;3.55;;;32.30;1.00;;;;;;4998439;28;20329;-65
2022/07/20 11:33:23;;;;;;;6.68;3.80;;;32.50;1.00;;;;;;4977267;28;20603;-65
2022/07/20 11:35:50;;;;;;;3.70;3.40;;;32.50;1.00;;;;;;5014202;28;20196;-65
2022/07/20 11:38:16;;;;;;;13.25;4.20;;;32.60;1.00;;;;;;5003561;28;20418;-65
2022/07/20 11:40:58;;;;;;;5.85;3.97;;;32.60;1.00;;;;;;5013861;28;20611;-65
2022/07/20 11:43:27;;;;;;;7.32;4.25;;;32.50;1.00;;;;;;5007443;28;20496;-64
2022/07/20 11:45:54;;;;;;;8.25;4.00;;;32.40;1.00;;;;;;5013701;28;20209;-64
2022/07/20 11:48:24;;;;;;;7.15;4.25;;;32.30;1.00;;;;;;4999986;28;20221;-65
2022/07/20 11:50:51;;;;;;;9.40;3.80;;;32.30;1.00;;;;;;4992928;28;20240;-64
2022/07/20 11:53:29;;;;;;;8.55;4.00;;;32.80;1.00;;;;;;4991965;28;20790;-64
2022/07/20 11:55:59;;;;;;;10.38;4.07;;;32.80;1.00;;;;;;5019492;28;20220;-64
2022/07/20 11:58:28;;;;;;;7.00;4.05;;;33.10;1.00;;;;;;5001305;28;20402;-65
2022/07/20 12:00:56;;;;;;;6.25;4.72;;;32.60;1.00;;;;;;5007769;28;20221;-65
2022/07/20 12:03:26;;;;;;;8.30;3.92;;;32.60;1.00;;;;;;5002513;28;20508;-66
2022/07/20 12:05:52;;;;;;;12.50;4.18;;;32.50;1.00;;;;;;4987425;28;20232;-65
2022/07/20 12:08:20;;;;;;;10.02;4.53;;;32.40;1.00;;;;;;5008480;28;20420;-65
2022/07/20 12:10:47;;;;;;;9.30;4.53;;;32.40;1.00;;;;;;5016455;28;20235;-64
2022/07/20 12:13:16;;;;;;;7.68;4.32;;;32.00;1.00;;;;;;4990099;28;20463;-64
2022/07/20 12:15:53;;;;;;;6.10;4.13;;;32.50;1.00;;;;;;5002534;28;20644;-64
2022/07/20 12:21:11;;;;;;;6.30;4.13;;;32.50;1.00;;;;;;5104502;22;20764;-64
2022/07/20 12:23:38;;;;;;;8.73;4.80;;;32.40;1.00;;;;;;5025085;28;20863;-66
2022/07/20 12:26:25;;;;;;;10.25;4.55;;;32.50;1.00;;;;;;5035938;28;20224;-65
2022/07/20 12:28:55;;;;;;;8.30;4.60;;;32.50;1.00;;;;;;5027932;28;23646;-64
2022/07/20 12:31:24;;;;;;;8.05;5.03;;;32.30;1.00;;;;;;5035535;28;20231;-64
2022/07/20 12:34:05;;;;;;;5.63;5.05;;;32.30;1.00;;;;;;5028869;28;20213;-64
2022/07/20 12:36:34;;;;;;;7.38;5.18;;;32.30;1.00;;;;;;5014993;28;20223;-64
2022/07/20 12:39:02;;;;;;;8.45;5.85;;;32.50;1.00;;;;;;5020831;28;20224;-64
2022/07/20 12:41:29;;;;;;;8.10;5.40;;;32.20;1.00;;;;;;5041665;28;20224;-64
2022/07/20 12:43:57;;;;;;;5.88;5.35;;;32.10;1.00;;;;;;5010105;28;20227;-65
2022/07/20 12:46:25;;;;;;;9.88;5.60;;;32.20;1.00;;;;;;5033936;28;20208;-64
2022/07/20 12:48:52;;;;;;;5.90;5.40;;;32.10;1.00;;;;;;5020310;28;20742;-64
2022/07/20 12:51:20;;;;;;;8.68;5.60;;;32.20;1.00;;;;;;5007805;28;20228;-64
2022/07/20 12:53:49;;;;;;;6.07;5.20;;;32.10;1.00;;;;;;5019238;28;20197;-64
2022/07/20 12:56:17;;;;;;;8.82;5.75;;;;;;;;;;5024474;28;20192;-64
2022/07/20 12:58:44;;;;;;;7.13;5.53;;;32.10;1.00;;;;;;5025642;28;20292;-64
2022/07/20 13:01:13;;;;;;;6.70;6.00;;;32.10;1.00;;;;;;5021629;28;20733;-64
2022/07/20 13:03:40;;;;;;;11.25;5.60;;;32.00;1.00;;;;;;5025487;28;20571;-65
2022/07/20 13:06:07;;;;;;;7.35;5.97;;;31.90;1.00;;;;;;5024766;28;20711;-65
2022/07/20 13:08:34;;;;;;;11.40;5.80;;;31.90;1.00;;;;;;5020507;28;20208;-64
2022/07/20 13:11:01;;;;;;;11.10;6.13;;;31.90;1.00;;;;;;4991781;28;20730;-63
2022/07/20 13:13:28;;;;;;;8.23;5.80;;;31.80;1.00;;;;;;5024726;28;20330;-65